Time;durP1;ratioP1;P1;durP2;ratioP2;P2;SDS_P1;SDS_P2;PMS_P1;PMS_P2;Temp;Humidity;BMP_temperature;BMP_pressure;BME280_temperature;BME280_humidity;BME280_pressure;Samples;Min_cycle;Max_cycle;Signal;HPM_P1;HPM_P2
2021/09/02 00:02:24;;;;;;;2.78;1.02;;;;;;;22.34;47.50;100631.72;4959112;28;20031;-72
2021/09/02 00:04:50;;;;;;;1.35;1.10;;;;;;;22.38;47.20;100624.75;4959802;28;20042;-72
2021/09/02 00:07:15;;;;;;;2.65;1.10;;;;;;;22.35;47.68;100627.63;4959192;28;20526;-71
2021/09/02 00:09:41;;;;;;;1.35;1.25;;;;;;;22.24;48.01;100627.84;4959482;28;20042;-71
2021/09/02 00:12:08;;;;;;;2.10;1.08;;;;;;;22.17;48.29;100617.44;4959135;28;20126;-72
2021/09/02 00:14:35;;;;;;;4.32;1.27;;;;;;;22.20;48.60;100622.22;4959335;28;20497;-71
2021/09/02 00:17:00;;;;;;;2.10;1.17;;;;;;;22.15;48.74;100624.75;4959263;28;20033;-71
2021/09/02 00:19:26;;;;;;;1.42;1.33;;;;;;;22.12;49.17;100625.63;4958581;28;20059;-71
2021/09/02 00:21:52;;;;;;;1.40;1.25;;;;;;;22.11;48.85;100609.88;4958934;28;20041;-70
2021/09/02 00:24:17;;;;;;;2.00;1.40;;;;;;;22.03;49.16;100611.19;4958885;28;20038;-72
2021/09/02 00:26:43;;;;;;;1.75;1.65;;;;;;;22.02;49.40;100610.38;4958681;28;20033;-71
2021/09/02 00:29:09;;;;;;;1.58;1.20;;;;;;;21.98;49.14;100604.75;4958717;28;20026;-71
2021/09/02 00:31:35;;;;;;;1.67;1.20;;;;;;;21.93;49.33;100613.75;4959454;28;20489;-71
2021/09/02 00:34:01;;;;;;;1.05;1.02;;;;;;;21.89;50.27;100613.03;4958840;28;20081;-70
2021/09/02 00:36:26;;;;;;;2.53;1.40;;;;;;;21.90;49.73;100614.63;4958696;28;20038;-72
2021/09/02 00:38:52;;;;;;;3.42;1.40;;;;;;;21.88;49.18;100617.06;4959032;28;20030;-72
2021/09/02 00:41:18;;;;;;;1.30;1.20;;;;;;;21.90;49.09;100613.84;4958514;28;20434;-71
2021/09/02 00:43:43;;;;;;;1.40;1.30;;;;;;;21.84;48.94;100622.03;4958777;28;20038;-72
2021/09/02 00:46:18;;;;;;;1.08;1.00;;;;;;;21.74;49.44;100614.50;4958715;28;20050;-72
2021/09/02 00:48:45;;;;;;;1.23;1.00;;;;;;;21.68;49.76;100624.72;4958999;28;20406;-71
2021/09/02 00:51:13;;;;;;;2.60;1.05;;;;;;;21.70;49.31;100616.56;4958439;28;20038;-71
2021/09/02 00:53:39;;;;;;;1.30;1.20;;;;;;;21.66;50.01;100627.16;4958871;28;20121;-72
2021/09/02 00:56:05;;;;;;;3.03;1.40;;;;;;;21.61;49.69;100627.63;4958337;28;20503;-71
2021/09/02 00:58:30;;;;;;;1.55;1.08;;;;;;;21.59;50.19;100624.44;4958279;28;20050;-73
2021/09/02 01:00:56;;;;;;;1.85;1.20;;;;;;;21.55;50.60;100626.53;4958205;28;20034;-71
2021/09/02 01:03:22;;;;;;;1.40;1.30;;;;;;;21.56;49.92;100625.28;4958253;28;20184;-71
2021/09/02 01:05:50;;;;;;;2.50;1.10;;;;;;;21.53;49.72;100634.66;4958178;28;20029;-71
2021/09/02 01:08:17;;;;;;;0.80;0.80;;;;;;;21.54;50.41;100636.25;4958124;28;20063;-73
2021/09/02 01:10:46;;;;;;;1.17;1.08;;;;;;;21.52;49.72;100628.19;4958616;28;20094;-73
2021/09/02 01:13:12;;;;;;;5.70;1.42;;;;;;;21.52;50.06;100633.84;4958108;28;20027;-73
2021/09/02 01:15:37;;;;;;;0.82;0.82;;;;;;;21.38;50.21;100606.53;4958002;28;20494;-71
2021/09/02 01:18:03;;;;;;;2.17;1.35;;;;;;;21.62;48.27;100632.88;4958495;28;20085;-72
2021/09/02 01:20:31;;;;;;;0.77;0.77;;;;;;;21.61;47.53;100642.59;4957458;28;20410;-72
2021/09/02 01:22:59;;;;;;;1.38;0.88;;;;;;;21.66;46.85;100644.16;4957910;28;20035;-71
2021/09/02 01:25:27;;;;;;;1.10;0.95;;;;;;;21.56;47.60;100645.91;4958054;28;20455;-73
2021/09/02 01:27:59;;;;;;;4.03;1.02;;;;;;;21.49;48.00;100648.06;4957713;28;20031;-73
2021/09/02 01:30:25;;;;;;;1.05;0.95;;;;;;;21.51;47.25;100648.41;4957648;28;20035;-73
2021/09/02 01:32:52;;;;;;;0.95;0.95;;;;;;;21.56;47.07;100651.56;4958024;28;20030;-73
2021/09/02 01:35:19;;;;;;;0.80;0.80;;;;;;;21.56;46.51;100651.56;4957318;28;20035;-71
2021/09/02 01:37:48;;;;;;;2.90;0.98;;;;;;;21.59;46.44;100661.25;4958455;28;20117;-71
2021/09/02 01:40:16;;;;;;;0.90;0.90;;;;;;;21.48;46.42;100635.94;4958038;28;20378;-71
2021/09/02 01:42:42;;;;;;;0.80;0.80;;;;;;;21.52;46.30;100652.84;4958064;28;20426;-71
2021/09/02 01:45:08;;;;;;;2.10;0.90;;;;;;;21.51;46.89;100657.72;4957726;28;20489;-70
2021/09/02 01:47:34;;;;;;;0.93;0.85;;;;;;;21.54;46.33;100656.88;4957378;28;20557;-71
2021/09/02 01:50:09;;;;;;;0.77;0.77;;;;;;;21.62;45.73;100654.72;4957457;28;20073;-71
2021/09/02 01:52:35;;;;;;;2.45;0.98;;;;;;;21.61;45.78;100655.94;4958071;28;20037;-72
2021/09/02 01:55:02;;;;;;;3.40;1.17;;;;;;;21.66;46.71;100652.63;4957233;28;20042;-72
2021/09/02 01:57:28;;;;;;;5.22;4.72;;;;;;;21.63;46.61;100653.50;4957940;28;20034;-71
2021/09/02 01:59:54;;;;;;;3.25;2.95;;;;;;;21.68;46.43;100655.88;4957401;28;20394;-72
2021/09/02 02:02:19;;;;;;;8.32;3.47;;;;;;;21.70;46.10;100656.22;4957236;28;20117;-71
2021/09/02 02:04:45;;;;;;;3.08;2.85;;;;;;;21.62;46.33;100663.22;4957016;28;20043;-70
2021/09/02 02:07:11;;;;;;;3.20;2.40;;;;;;;21.83;46.08;100662.88;4957344;28;20098;-71
2021/09/02 02:09:37;;;;;;;3.88;2.60;;;;;;;21.65;43.63;100653.88;4957180;28;20099;-72
2021/09/02 02:12:03;;;;;;;1.60;1.50;;;;;;;21.67;44.56;100657.88;4957198;28;20022;-71
2021/09/02 02:14:28;;;;;;;10.45;9.43;;;;;;;21.74;43.76;100656.97;4957971;28;20122;-73
2021/09/02 02:16:54;;;;;;;3.15;2.85;;;;;;;21.69;45.00;100655.44;4957451;28;20042;-71
2021/09/02 02:19:20;;;;;;;4.38;3.58;;;;;;;21.78;44.59;100669.03;4956803;28;20494;-73
2021/09/02 02:21:46;;;;;;;5.07;4.68;;;;;;;21.79;44.20;100659.31;4957185;28;20039;-71
2021/09/02 02:24:11;;;;;;;3.30;3.05;;;;;;;21.73;44.67;100660.22;4958681;28;20118;-72
2021/09/02 02:26:37;;;;;;;4.43;4.03;;;;;;;21.68;44.38;100665.16;4960980;28;20035;-71
2021/09/02 02:29:03;;;;;;;4.40;4.10;;;;;;;21.69;45.11;100660.28;4961011;28;20099;-71
2021/09/02 02:31:31;;;;;;;5.72;3.72;;;;;;;21.69;44.78;100660.28;4960995;28;20034;-71
2021/09/02 02:33:58;;;;;;;5.53;1.90;;;;;;;21.64;43.68;100647.41;4961112;28;20478;-71
2021/09/02 02:36:24;;;;;;;2.03;1.92;;;;;;;21.60;44.83;100657.97;4961129;28;20034;-71
2021/09/02 02:38:49;;;;;;;2.33;2.20;;;;;;;21.55;45.18;100655.63;4960839;28;20375;-71
2021/09/02 02:41:15;;;;;;;1.33;1.23;;;;;;;21.53;44.74;100668.63;4961077;28;20069;-71
2021/09/02 02:43:41;;;;;;;6.38;4.40;;;;;;;21.63;45.25;100664.84;4960839;28;20031;-72
2021/09/02 02:46:06;;;;;;;6.50;4.63;;;;;;;21.67;45.05;100662.72;4960644;28;20027;-72
2021/09/02 02:48:32;;;;;;;4.05;2.30;;;;;;;21.68;45.82;100659.50;4960426;28;20039;-71
2021/09/02 02:50:58;;;;;;;1.85;1.40;;;;;;;21.64;45.81;100666.44;4960898;28;20033;-71
2021/09/02 02:53:24;;;;;;;1.10;1.00;;;;;;;21.62;45.84;100663.22;4960847;28;20441;-71
2021/09/02 02:55:49;;;;;;;1.92;1.30;;;;;;;21.70;45.81;100667.56;4960817;28;20046;-72
2021/09/02 02:58:15;;;;;;;3.28;1.05;;;;;;;21.64;45.49;100667.22;4961295;28;20552;-71
2021/09/02 03:00:40;;;;;;;0.73;0.73;;;;;;;21.58;45.64;100666.13;4960460;28;20037;-71
2021/09/02 03:03:06;;;;;;;1.55;0.98;;;;;;;21.54;45.90;100664.56;4960458;28;20023;-72
2021/09/02 03:05:32;;;;;;;1.33;1.10;;;;;;;21.53;44.92;100660.13;4960294;28;20038;-73
2021/09/02 03:07:57;;;;;;;0.60;0.60;;;;;;;21.55;44.28;100660.50;4960643;28;20035;-71
2021/09/02 03:10:23;;;;;;;1.50;0.90;;;;;;;21.36;45.79;100634.47;4960288;28;20038;-71
2021/09/02 03:12:49;;;;;;;2.75;0.60;;;;;;;21.53;45.03;100660.13;4960440;28;20034;-72
2021/09/02 03:15:14;;;;;;;1.05;0.75;;;;;;;21.51;46.03;100665.41;4960185;28;20470;-72
2021/09/02 03:17:40;;;;;;;3.45;0.90;;;;;;;21.50;46.07;100667.44;4960452;28;20114;-70
2021/09/02 03:20:08;;;;;;;1.42;0.85;;;;;;;21.42;46.14;100663.13;4959754;28;20113;-73
2021/09/02 03:22:34;;;;;;;2.67;0.82;;;;;;;21.41;46.66;100661.50;4960044;28;20472;-72
2021/09/02 03:25:00;;;;;;;0.93;0.80;;;;;;;21.33;46.71;100671.31;4960503;28;20066;-72
2021/09/02 03:27:26;;;;;;;2.30;1.10;;;;;;;21.28;47.34;100664.06;4959967;28;20465;-73
2021/09/02 03:29:51;;;;;;;2.88;0.90;;;;;;;21.30;47.00;100666.50;4960505;28;20039;-72
2021/09/02 03:32:17;;;;;;;1.02;1.02;;;;;;;21.17;47.46;100666.25;4960498;28;20493;-71
2021/09/02 03:34:45;;;;;;;3.50;0.80;;;;;;;21.08;47.77;100682.91;4960074;28;20390;-71
2021/09/02 03:37:11;;;;;;;1.75;0.90;;;;;;;21.00;47.97;100672.94;4959822;28;20030;-73
2021/09/02 03:39:36;;;;;;;0.70;0.70;;;;;;;20.98;48.28;100675.34;4960337;28;20035;-71
2021/09/02 03:42:02;;;;;;;1.35;1.25;;;;;;;21.01;47.87;100671.69;4960052;28;20386;-72
2021/09/02 03:44:28;;;;;;;0.90;0.88;;;;;;;20.89;48.23;100690.03;4960275;28;20528;-71
2021/09/02 03:46:53;;;;;;;2.63;1.00;;;;;;;20.99;48.55;100691.13;4959909;28;20029;-71
2021/09/02 03:49:19;;;;;;;10.73;1.25;;;;;;;20.90;48.60;100692.44;4960173;28;20031;-71
2021/09/02 03:51:44;;;;;;;2.42;0.88;;;;;;;20.86;48.96;100694.47;4959564;28;20389;-71
2021/09/02 03:54:10;;;;;;;0.85;0.85;;;;;;;20.87;49.15;100693.25;4960312;28;20035;-71
2021/09/02 03:56:35;;;;;;;2.38;1.23;;;;;;;20.80;49.26;100696.16;4959789;28;20042;-71
2021/09/02 03:59:01;;;;;;;1.40;1.30;;;;;;;20.78;49.47;100687.31;4959474;28;20485;-70
2021/09/02 04:01:27;;;;;;;0.90;0.90;;;;;;;20.87;49.24;100701.75;4959633;28;20030;-72
2021/09/02 04:03:53;;;;;;;1.48;1.15;;;;;;;20.85;49.29;100704.19;4959307;28;20034;-71
2021/09/02 04:06:19;;;;;;;0.93;0.80;;;;;;;20.83;49.33;100715.13;4959452;28;20478;-72
2021/09/02 04:08:46;;;;;;;2.50;1.02;;;;;;;20.64;49.99;100690.28;4959794;28;20031;-71
2021/09/02 04:11:12;;;;;;;1.15;0.90;;;;;;;20.75;49.79;100710.75;4976881;28;20027;-72
2021/09/02 04:13:38;;;;;;;0.90;0.90;;;;;;;20.71;50.28;100704.34;4959141;28;20031;-71
2021/09/02 04:16:03;;;;;;;2.75;0.98;;;;;;;20.69;50.46;100706.78;4959374;28;20069;-74
2021/09/02 04:18:29;;;;;;;3.45;0.95;;;;;;;20.71;50.40;100720.50;4959118;28;20089;-73
2021/09/02 04:20:55;;;;;;;0.80;0.80;;;;;;;20.65;50.52;100728.63;4958792;28;20047;-71
2021/09/02 04:23:20;;;;;;;0.70;0.70;;;;;;;20.69;50.62;100722.97;4958995;28;20054;-70
2021/09/02 04:25:46;;;;;;;1.83;0.80;;;;;;;20.72;50.87;100736.25;4958855;28;20117;-73
2021/09/02 04:28:11;;;;;;;0.70;0.70;;;;;;;20.75;50.85;100744.69;4958906;28;20106;-71
2021/09/02 04:30:37;;;;;;;0.70;0.70;;;;;;;20.69;50.98;100746.38;4958903;28;20035;-71
2021/09/02 04:33:02;;;;;;;0.80;0.80;;;;;;;20.75;51.56;100752.38;4959077;28;20030;-71
2021/09/02 04:35:29;;;;;;;1.42;0.95;;;;;;;20.71;51.65;100749.56;4959059;28;20035;-71
2021/09/02 04:37:54;;;;;;;3.15;0.90;;;;;;;20.83;51.40;100739.78;4958684;28;20114;-71
2021/09/02 04:40:20;;;;;;;1.25;1.00;;;;;;;20.77;51.75;100730.94;4959142;28;20130;-70
2021/09/02 04:42:46;;;;;;;1.00;0.88;;;;;;;20.85;51.77;100746.63;4958601;28;20034;-72
2021/09/02 04:45:15;;;;;;;1.45;1.00;;;;;;;20.92;52.22;100743.69;4958728;28;20126;-71
2021/09/02 04:47:41;;;;;;;1.00;0.90;;;;;;;20.95;52.19;100749.75;4958302;28;20050;-71
2021/09/02 04:50:10;;;;;;;1.95;1.17;;;;;;;21.11;52.18;100745.13;4958754;28;20065;-71
2021/09/02 04:52:36;;;;;;;3.92;0.90;;;;;;;21.24;52.08;100753.06;4958389;28;20058;-72
2021/09/02 04:55:02;;;;;;;2.28;1.38;;;;;;;21.88;50.30;100752.25;4958439;28;20027;-71
2021/09/02 04:57:28;;;;;;;2.25;0.98;;;;;;;22.45;49.13;100757.06;4958380;28;20030;-73
2021/09/02 04:59:56;;;;;;;2.72;1.10;;;;;;;23.02;47.74;100752.44;4958801;28;20041;-71
2021/09/02 05:02:22;;;;;;;2.05;1.27;;;;;;;23.64;46.13;100751.56;4958517;28;20039;-71
2021/09/02 05:04:48;;;;;;;1.42;1.33;;;;;;;24.24;44.50;100745.75;4958396;28;20501;-71
2021/09/02 05:07:13;;;;;;;1.67;1.40;;;;;;;24.76;43.34;100753.38;4958558;28;20500;-73
2021/09/02 05:09:39;;;;;;;1.90;1.20;;;;;;;25.35;42.26;100743.63;4958337;28;20478;-73
2021/09/02 05:12:04;;;;;;;1.70;1.48;;;;;;;25.74;41.16;100748.19;4958084;28;20434;-72
2021/09/02 05:14:33;;;;;;;2.78;1.63;;;;;;;26.23;40.57;100747.06;4958048;28;20037;-72
2021/09/02 05:16:59;;;;;;;1.67;1.27;;;;;;;26.78;39.27;100754.16;4958057;28;20022;-71
2021/09/02 05:19:24;;;;;;;4.22;1.55;;;;;;;27.28;38.28;100745.91;4957604;28;20053;-74
2021/09/02 05:21:50;;;;;;;5.50;1.67;;;;;;;27.76;37.20;100741.63;4958360;28;20058;-72
2021/09/02 05:24:15;;;;;;;1.50;1.40;;;;;;;28.21;36.58;100731.66;4957825;28;20549;-72
2021/09/02 05:26:41;;;;;;;1.90;1.67;;;;;;;28.44;35.97;100741.75;4957713;28;20031;-73
2021/09/02 05:29:07;;;;;;;1.63;1.17;;;;;;;28.57;35.41;100748.16;4958199;28;20038;-72
2021/09/02 05:31:33;;;;;;;1.92;1.45;;;;;;;28.46;35.69;100744.94;4941761;28;20390;-72
2021/09/02 05:33:58;;;;;;;1.88;1.27;;;;;;;28.24;36.01;100736.44;4958038;28;20121;-73
2021/09/02 05:36:26;;;;;;;2.33;1.42;;;;;;;27.99;36.16;100733.78;4958252;28;20394;-71
2021/09/02 05:38:51;;;;;;;1.95;1.48;;;;;;;28.45;35.76;100726.97;4957624;28;20121;-72
2021/09/02 05:41:17;;;;;;;3.08;1.38;;;;;;;28.70;35.23;100728.75;4957601;28;20121;-71
2021/09/02 05:43:42;;;;;;;2.63;2.13;;;;;;;28.89;34.44;100731.63;4957847;28;20038;-72
2021/09/02 05:46:08;;;;;;;4.75;2.28;;;;;;;28.76;34.85;100745.28;4957523;28;20030;-72
2021/09/02 05:48:36;;;;;;;3.08;1.77;;;;;;;28.97;34.53;100742.31;4957533;28;20113;-71
2021/09/02 05:51:01;;;;;;;3.47;1.67;;;;;;;29.25;33.61;100733.72;4957437;28;20474;-72
2021/09/02 05:53:27;;;;;;;2.13;1.55;;;;;;;29.81;32.86;100737.28;4957524;28;20041;-71
2021/09/02 05:55:52;;;;;;;3.08;2.13;;;;;;;30.30;31.99;100739.00;4958186;28;20058;-74
2021/09/02 05:58:21;;;;;;;2.20;1.83;;;;;;;30.22;31.73;100741.44;4956246;28;20034;-73
2021/09/02 06:00:50;;;;;;;3.13;1.38;;;;;;;30.41;30.80;100742.91;4957288;28;20030;-73
2021/09/02 06:03:15;;;;;;;3.20;1.80;;;;;;;30.60;30.69;100728.47;4957638;28;20034;-72
2021/09/02 06:05:41;;;;;;;3.38;1.63;;;;;;;30.87;29.87;100727.50;4957351;28;20524;-72
2021/09/02 06:08:06;;;;;;;1.45;1.35;;;;;;;31.87;28.61;100722.88;4957271;28;20035;-72
2021/09/02 06:10:33;;;;;;;6.32;1.45;;;;;;;31.20;29.58;100716.66;4956928;28;20031;-74
2021/09/02 06:12:59;;;;;;;2.60;1.60;;;;;;;30.62;29.36;100732.41;4957667;28;20409;-72
2021/09/02 06:15:25;;;;;;;1.52;1.38;;;;;;;30.05;30.63;100738.16;4957377;28;20423;-73
2021/09/02 06:17:51;;;;;;;1.38;1.20;;;;;;;29.17;32.20;100738.19;4957641;28;20039;-72
2021/09/02 06:20:19;;;;;;;1.27;1.17;;;;;;;29.22;32.07;100746.94;4956845;28;20413;-71
2021/09/02 06:22:44;;;;;;;1.83;1.55;;;;;;;29.38;32.85;100759.34;4957776;28;20422;-72
2021/09/02 06:25:11;;;;;;;2.38;1.38;;;;;;;29.98;31.11;100747.09;4957273;28;20089;-72
2021/09/02 06:27:37;;;;;;;3.03;1.90;;;;;;;29.85;31.29;100749.38;4957087;28;20129;-73
2021/09/02 06:30:04;;;;;;;2.08;1.80;;;;;;;30.26;30.88;100757.22;4957044;28;20074;-72
2021/09/02 06:32:30;;;;;;;4.30;2.45;;;;;;;30.30;29.88;100741.88;4956850;28;20038;-72
2021/09/02 06:34:56;;;;;;;3.97;3.00;;;;;;;31.03;28.87;100747.16;4957288;28;20035;-71
2021/09/02 06:37:21;;;;;;;4.07;2.85;;;;;;;30.68;28.97;100744.03;4956885;28;20460;-74
2021/09/02 06:39:50;;;;;;;2.83;1.85;;;;;;;30.31;29.38;100754.94;4956945;28;20117;-73
2021/09/02 06:42:16;;;;;;;3.40;1.77;;;;;;;30.46;29.11;100735.72;4957103;28;20386;-74
2021/09/02 06:44:41;;;;;;;2.35;1.70;;;;;;;30.59;29.16;100747.78;4957205;28;20019;-72
2021/09/02 06:47:07;;;;;;;6.20;2.42;;;;;;;29.92;29.96;100743.28;4957241;28;20477;-71
2021/09/02 06:49:32;;;;;;;3.42;1.92;;;;;;;29.49;30.67;100748.97;4956416;28;20328;-71
2021/09/02 06:51:58;;;;;;;5.47;2.40;;;;;;;29.00;31.22;100756.97;4956791;28;20039;-73
2021/09/02 06:54:24;;;;;;;3.80;2.60;;;;;;;28.91;32.53;100766.31;4956786;28;20548;-73
2021/09/02 06:56:49;;;;;;;6.50;2.40;;;;;;;29.02;31.10;100755.22;4956650;28;20034;-73
2021/09/02 06:59:15;;;;;;;4.50;2.40;;;;;;;29.38;30.48;100754.41;4973848;28;20050;-73
2021/09/02 07:01:40;;;;;;;2.85;1.95;;;;;;;29.86;29.78;100737.44;4956738;28;20122;-73
2021/09/02 07:04:06;;;;;;;4.55;2.53;;;;;;;29.04;30.75;100734.69;4956624;28;20034;-72
2021/09/02 07:06:32;;;;;;;4.28;2.38;;;;;;;29.49;29.73;100733.84;4973628;28;20030;-72
2021/09/02 07:08:57;;;;;;;3.92;2.60;;;;;;;30.61;28.69;100742.31;4956507;28;20034;-72
2021/09/02 07:11:23;;;;;;;2.78;2.22;;;;;;;30.55;28.37;100747.16;4959975;28;20037;-75
2021/09/02 07:13:49;;;;;;;2.10;1.90;;;;;;;30.71;28.22;100769.72;4960105;28;20541;-74
2021/09/02 07:16:14;;;;;;;1.80;1.70;;;;;;;31.71;27.10;100773.03;4960335;28;20126;-75
2021/09/02 07:18:40;;;;;;;2.47;2.05;;;;;;;32.64;25.11;100779.25;4959954;28;20561;-74
2021/09/02 07:21:05;;;;;;;2.97;2.38;;;;;;;31.52;25.95;100777.38;4960719;28;20038;-73
2021/09/02 07:23:31;;;;;;;2.58;2.35;;;;;;;30.04;28.09;100776.72;4960047;28;20129;-72
2021/09/02 07:25:57;;;;;;;3.33;2.00;;;;;;;30.38;28.31;100778.34;4959891;28;20065;-73
2021/09/02 07:28:22;;;;;;;4.95;2.55;;;;;;;30.39;27.64;100782.03;4960412;28;20035;-74
2021/09/02 07:30:48;;;;;;;3.42;2.25;;;;;;;29.42;28.52;100771.44;4959269;28;20343;-71
2021/09/02 07:33:14;;;;;;;3.85;2.42;;;;;;;29.23;28.92;100784.97;4959646;28;20045;-71
2021/09/02 07:35:39;;;;;;;6.75;1.98;;;;;;;28.98;29.52;100803.28;4959386;28;20085;-72
2021/09/02 07:38:06;;;;;;;2.65;2.00;;;;;;;29.94;27.75;100798.13;4959940;28;20035;-73
2021/09/02 07:40:32;;;;;;;2.95;1.75;;;;;;;29.60;28.25;100794.38;4959672;28;20041;-71
2021/09/02 07:43:01;;;;;;;7.30;2.33;;;;;;;29.90;27.98;100794.63;4959396;28;20027;-71
2021/09/02 07:45:26;;;;;;;1.70;1.60;;;;;;;29.18;28.50;100803.59;4959457;28;20023;-71
2021/09/02 07:47:52;;;;;;;2.20;1.92;;;;;;;29.31;27.94;100808.38;4959816;28;20045;-72
2021/09/02 07:50:17;;;;;;;2.53;1.77;;;;;;;28.63;29.38;100809.22;4959558;28;20081;-73
2021/09/02 07:52:43;;;;;;;5.38;1.67;;;;;;;28.93;28.48;100809.63;4959372;28;20026;-74
2021/09/02 07:55:10;;;;;;;4.47;2.08;;;;;;;29.35;28.67;100812.69;4959443;28;20034;-72
2021/09/02 07:57:37;;;;;;;2.17;1.88;;;;;;;29.79;27.28;100814.41;4959697;28;20034;-71
2021/09/02 08:00:06;;;;;;;2.58;1.85;;;;;;;30.16;28.20;100806.53;4960006;28;20145;-72
2021/09/02 08:02:32;;;;;;;2.05;1.90;;;;;;;30.44;26.81;100807.19;4959303;28;20027;-73
2021/09/02 08:04:58;;;;;;;2.38;1.77;;;;;;;30.47;26.14;100809.09;4959078;28;20031;-72
2021/09/02 08:07:23;;;;;;;2.15;1.95;;;;;;;30.48;26.14;100807.81;4959112;28;20085;-73
2021/09/02 08:09:51;;;;;;;2.05;1.77;;;;;;;30.24;27.03;100814.28;4959385;28;20122;-71
2021/09/02 08:12:16;;;;;;;2.10;1.90;;;;;;;30.35;26.74;100813.75;4959633;28;20054;-71
2021/09/02 08:14:42;;;;;;;5.25;1.90;;;;;;;31.19;25.63;100818.53;4959121;28;20446;-72
2021/09/02 08:17:08;;;;;;;3.95;2.15;;;;;;;31.57;24.73;100822.72;4959137;28;20035;-73
2021/09/02 08:19:33;;;;;;;2.25;1.80;;;;;;;32.27;24.54;100820.03;4959083;28;20086;-73
2021/09/02 08:21:59;;;;;;;4.30;1.50;;;;;;;32.42;23.22;100819.25;4958032;28;20478;-76
2021/09/02 08:24:24;;;;;;;2.58;1.63;;;;;;;32.21;23.76;100815.50;4958937;28;20051;-74
2021/09/02 08:26:50;;;;;;;1.50;1.40;;;;;;;31.91;23.30;100809.00;4958882;28;20055;-74
2021/09/02 08:29:16;;;;;;;2.10;1.90;;;;;;;31.78;23.44;100812.13;4957996;28;20042;-73
2021/09/02 08:31:41;;;;;;;1.35;1.25;;;;;;;31.87;23.74;100820.69;4958828;28;20035;-72
2021/09/02 08:34:07;;;;;;;5.97;1.73;;;;;;;31.84;23.64;100810.16;4959041;28;20058;-72
2021/09/02 08:36:34;;;;;;;3.33;1.45;;;;;;;31.29;24.43;100811.47;4959228;28;20395;-72
2021/09/02 08:38:59;;;;;;;7.90;1.83;;;;;;;32.07;23.99;100814.25;4959360;28;20034;-72
2021/09/02 08:41:27;;;;;;;2.40;1.80;;;;;;;32.11;23.42;100811.94;4958513;28;20026;-74
2021/09/02 08:43:53;;;;;;;1.73;1.40;;;;;;;31.69;23.40;100807.25;4958439;28;20422;-73
2021/09/02 08:46:20;;;;;;;2.72;1.70;;;;;;;31.86;22.56;100813.34;4958568;28;20130;-72
2021/09/02 08:48:48;;;;;;;3.28;2.10;;;;;;;31.90;22.92;100816.00;4958336;28;20046;-72
2021/09/02 08:51:14;;;;;;;1.92;1.52;;;;;;;32.36;22.53;100816.28;4958617;28;20030;-73
2021/09/02 08:53:42;;;;;;;4.93;2.83;;;;;;;32.41;22.47;100823.44;4975594;28;20027;-72
2021/09/02 08:56:07;;;;;;;3.10;2.78;;;;;;;33.06;22.20;100821.25;4958097;28;20075;-73
2021/09/02 08:58:33;;;;;;;2.92;2.47;;;;;;;33.74;21.22;100817.84;4958833;28;20039;-71
2021/09/02 09:00:59;;;;;;;5.45;3.38;;;;;;;34.11;21.10;100828.72;4958461;28;20034;-73
2021/09/02 09:03:28;;;;;;;2.47;2.28;;;;;;;34.16;20.67;100825.09;4958425;28;20066;-72
2021/09/02 09:05:59;;;;;;;2.78;1.80;;;;;;;34.32;20.64;100833.09;4958749;28;20368;-74
2021/09/02 09:08:41;;;;;;;4.10;1.92;;;;;;;34.80;20.20;100838.16;4957982;28;20031;-71
2021/09/02 09:11:18;;;;;;;2.58;1.92;;;;;;;35.15;20.12;100828.34;4957976;28;20019;-72
2021/09/02 09:13:45;;;;;;;7.03;2.30;;;;;;;35.61;19.36;100833.00;4958706;28;20082;-72
2021/09/02 09:16:11;;;;;;;2.42;2.20;;;;;;;35.60;19.74;100831.44;4975304;28;20033;-72
2021/09/02 09:18:42;;;;;;;2.58;2.10;;;;;;;35.53;19.22;100823.25;4957736;28;20481;-73
2021/09/02 09:21:12;;;;;;;3.08;2.15;;;;;;;35.94;19.50;100821.50;4958300;28;20533;-71
2021/09/02 09:24:05;;;;;;;3.50;1.65;;;;;;;34.93;20.02;100811.66;4958000;28;20058;-72
2021/09/02 09:26:33;;;;;;;2.53;1.95;;;;;;;35.16;19.53;100818.41;4957828;28;20027;-72
2021/09/02 09:29:01;;;;;;;3.67;2.03;;;;;;;35.86;19.11;100813.84;4958525;28;20031;-73
2021/09/02 09:31:32;;;;;;;1.70;1.60;;;;;;;34.45;19.80;100811.66;4957740;28;20485;-74
2021/09/02 09:34:08;;;;;;;1.85;1.70;;;;;;;34.10;19.68;100809.81;4957859;28;20035;-74
2021/09/02 09:36:36;;;;;;;1.55;1.45;;;;;;;34.72;19.24;100793.69;4957645;28;20122;-72
2021/09/02 09:39:16;;;;;;;2.53;1.70;;;;;;;35.40;18.62;100794.78;4957593;28;20078;-73
2021/09/02 09:41:47;;;;;;;5.40;2.45;;;;;;;33.66;20.38;100787.84;4957886;28;20031;-72
2021/09/02 09:44:27;;;;;;;3.38;2.03;;;;;;;33.74;20.47;100794.75;4957608;28;20039;-73
2021/09/02 09:47:02;;;;;;;2.95;1.77;;;;;;;31.81;21.97;100771.69;4957716;28;20039;-73
2021/09/02 09:49:46;;;;;;;4.55;2.10;;;;;;;32.22;22.08;100791.97;4958238;28;20058;-74
2021/09/02 09:52:32;;;;;;;2.95;2.17;;;;;;;31.75;22.58;100782.28;4957995;28;20378;-74
2021/09/02 09:55:10;;;;;;;4.50;2.28;;;;;;;31.27;23.16;100785.31;4957235;28;20042;-73
2021/09/02 09:57:37;;;;;;;3.33;2.30;;;;;;;32.06;22.19;100775.22;4957715;28;20470;-72
2021/09/02 10:00:12;;;;;;;4.40;2.30;;;;;;;30.77;24.06;100775.59;4957251;28;20039;-74
2021/09/02 10:02:40;;;;;;;6.47;2.25;;;;;;;30.46;24.35;100770.97;4975214;28;20102;-73
2021/09/02 10:05:08;;;;;;;4.88;2.53;;;;;;;30.93;23.86;100763.66;4957224;28;20035;-73
2021/09/02 10:07:35;;;;;;;3.47;2.20;;;;;;;31.30;24.27;100758.44;4956716;28;20027;-74
2021/09/02 10:10:05;;;;;;;5.85;2.67;;;;;;;31.87;23.39;100751.63;4957080;28;20031;-71
2021/09/02 10:12:36;;;;;;;4.63;2.22;;;;;;;31.86;23.15;100755.03;4957762;28;20117;-73
2021/09/02 10:15:11;;;;;;;5.07;2.20;;;;;;;31.46;23.18;100762.13;4957979;28;20418;-73
2021/09/02 10:17:38;;;;;;;2.35;2.13;;;;;;;31.96;22.63;100747.84;4957023;28;20549;-72
2021/09/02 10:20:16;;;;;;;9.63;2.25;;;;;;;32.23;22.36;100756.16;4956819;28;20054;-72
2021/09/02 10:22:43;;;;;;;7.93;2.47;;;;;;;32.65;22.03;100740.50;4957492;28;20042;-73
2021/09/02 10:25:29;;;;;;;5.75;2.38;;;;;;;32.72;21.96;100733.53;4957107;28;20070;-73
2021/09/02 10:28:04;;;;;;;4.20;2.40;;;;;;;31.91;23.14;100739.94;4941243;28;20089;-72
2021/09/02 10:30:31;;;;;;;4.15;2.40;;;;;;;31.86;23.09;100727.03;4957644;28;20415;-73
2021/09/02 10:32:59;;;;;;;4.57;2.05;;;;;;;32.76;22.55;100723.41;4957402;28;20027;-73
2021/09/02 10:35:25;;;;;;;3.20;1.80;;;;;;;33.21;22.31;100729.69;4974334;28;20026;-73
2021/09/02 10:37:54;;;;;;;4.63;2.22;;;;;;;33.35;22.33;100728.00;4957105;28;20466;-73
2021/09/02 10:40:19;;;;;;;4.82;2.30;;;;;;;33.24;21.98;100722.91;4957592;28;20426;-74
2021/09/02 10:42:49;;;;;;;4.20;2.28;;;;;;;32.71;23.00;100718.34;4956987;28;20097;-73
2021/09/02 10:47:53;;;;;;;3.25;2.05;;;;;;;33.86;21.79;100700.41;4978073;28;20043;-72
2021/09/02 10:50:24;;;;;;;6.97;2.75;;;;;;;34.20;21.79;100698.59;4960492;28;20070;-74
2021/09/02 10:52:54;;;;;;;6.80;2.45;;;;;;;34.15;21.18;100702.22;4960463;28;20042;-74
2021/09/02 10:55:36;;;;;;;6.45;2.80;;;;;;;34.97;20.86;100701.59;4960637;28;20113;-74
2021/09/02 10:58:03;;;;;;;8.70;2.80;;;;;;;32.75;22.34;100712.34;4960455;28;20030;-74
2021/09/02 11:00:42;;;;;;;7.55;2.45;;;;;;;32.31;23.14;100705.47;4960497;28;20027;-73
2021/09/02 11:03:17;;;;;;;3.22;2.08;;;;;;;31.76;24.54;100694.69;4960375;28;20038;-75
2021/09/02 11:05:46;;;;;;;5.80;2.67;;;;;;;31.45;24.81;100691.53;4961077;28;20039;-72
2021/09/02 11:08:29;;;;;;;7.85;3.00;;;;;;;31.34;24.32;100692.13;4944960;28;20046;-73
2021/09/02 11:11:27;;;;;;;4.50;2.35;;;;;;;30.43;25.84;100688.69;4960650;28;20031;-73
2021/09/02 11:13:54;;;;;;;5.18;2.33;;;;;;;30.44;25.57;100680.88;4918128;28;20098;-73
2021/09/02 11:16:24;;;;;;;7.57;2.55;;;;;;;30.41;26.22;100681.84;4960383;28;20030;-72
2021/09/02 11:18:53;;;;;;;5.55;2.50;;;;;;;30.50;25.90;100678.91;4959623;28;20094;-73
2021/09/02 11:21:21;;;;;;;5.75;2.63;;;;;;;30.91;25.46;100674.31;4960104;28;20035;-73
2021/09/02 11:23:54;;;;;;;3.35;2.30;;;;;;;31.67;24.63;100679.59;4960119;28;20023;-73
2021/09/02 11:26:54;;;;;;;;;;;;;;;32.18;24.44;100684.09;4960404;28;20030;-73
2021/09/02 11:29:22;;;;;;;6.15;2.67;;;;;;;31.49;24.29;100680.63;4917776;29;20267;-74